Map

Track Data

SID SEASON NUMBER BASIN SUBBASIN NAME ISO_TIME NATURE LAT LON WMO_WIND WMO_PRES WMO_AGENCY TRACK_TYPE DIST2LAND LANDFALL IFLAG USA_AGENCY USA_ATCF_ID USA_LAT USA_LON USA_RECORD USA_STATUS USA_WIND USA_PRES USA_SSHS USA_R34_NE USA_R34_SE USA_R34_SW USA_R34_NW USA_R50_NE USA_R50_SE USA_R50_SW USA_R50_NW USA_R64_NE USA_R64_SE USA_R64_SW USA_R64_NW USA_POCI USA_ROCI USA_RMW USA_EYE TOKYO_LAT TOKYO_LON TOKYO_GRADE TOKYO_WIND TOKYO_PRES TOKYO_R50_DIR TOKYO_R50_LONG TOKYO_R50_SHORT TOKYO_R30_DIR TOKYO_R30_LONG TOKYO_R30_SHORT TOKYO_LAND CMA_LAT CMA_LON CMA_CAT CMA_WIND CMA_PRES HKO_LAT HKO_LON HKO_CAT HKO_WIND HKO_PRES NEWDELHI_LAT NEWDELHI_LON NEWDELHI_GRADE NEWDELHI_WIND NEWDELHI_PRES NEWDELHI_CI NEWDELHI_DP NEWDELHI_POCI REUNION_LAT REUNION_LON REUNION_TYPE REUNION_WIND REUNION_PRES REUNION_TNUM REUNION_CI REUNION_RMW REUNION_R34_NE REUNION_R34_SE REUNION_R34_SW REUNION_R34_NW REUNION_R50_NE REUNION_R50_SE REUNION_R50_SW REUNION_R50_NW REUNION_R64_NE REUNION_R64_SE REUNION_R64_SW REUNION_R64_NW BOM_LAT BOM_LON BOM_TYPE BOM_WIND BOM_PRES BOM_TNUM BOM_CI BOM_RMW BOM_R34_NE BOM_R34_SE BOM_R34_SW BOM_R34_NW BOM_R50_NE BOM_R50_SE BOM_R50_SW BOM_R50_NW BOM_R64_NE BOM_R64_SE BOM_R64_SW BOM_R64_NW BOM_ROCI BOM_POCI BOM_EYE BOM_POS_METHOD BOM_PRES_METHOD NADI_LAT NADI_LON NADI_CAT NADI_WIND NADI_PRES WELLINGTON_LAT WELLINGTON_LON WELLINGTON_WIND WELLINGTON_PRES DS824_LAT DS824_LON DS824_STAGE DS824_WIND DS824_PRES TD9636_LAT TD9636_LON TD9636_STAGE TD9636_WIND TD9636_PRES TD9635_LAT TD9635_LON TD9635_WIND TD9635_PRES TD9635_ROCI NEUMANN_LAT NEUMANN_LON NEUMANN_CLASS NEUMANN_WIND NEUMANN_PRES MLC_LAT MLC_LON MLC_CLASS MLC_WIND MLC_PRES USA_GUST BOM_GUST BOM_GUST_PER REUNION_GUST REUNION_GUST_PER USA_SEAHGT USA_SEARAD_NE USA_SEARAD_SE USA_SEARAD_SW USA_SEARAD_NW STORM_SPEED STORM_DIR
1949286N21285 1949 91 NA NA NOT_NAMED 1949-10-13 06:00:00 TS 20.8000 -74.7000 30 hurdat_atl main 22 22 O_____________ hurdat_atl AL131949 20.8000 -74.7000 TD 30 -1 9 39
1949286N21285 1949 91 NA NA NOT_NAMED 1949-10-13 09:00:00 TS 21.1501 -74.4003 main 73 56 P_____________ AL131949 21.1501 -74.4003 TD 30 -1 9 39
1949286N21285 1949 91 NA NA NOT_NAMED 1949-10-13 12:00:00 TS 21.5000 -74.1000 30 hurdat_atl main 60 60 O_____________ hurdat_atl AL131949 21.5000 -74.1000 TD 30 -1 9 39
1949286N21285 1949 91 NA NA NOT_NAMED 1949-10-13 15:00:00 TS 21.8499 -73.7999 main 78 78 P_____________ AL131949 21.8499 -73.7999 TD 32 -1 9 38
1949286N21285 1949 91 NA NA NOT_NAMED 1949-10-13 18:00:00 TS 22.2000 -73.5000 35 hurdat_atl main 116 116 O_____________ hurdat_atl AL131949 22.2000 -73.5000 TS 35 0 9 38
1949286N21285 1949 91 NA NA NOT_NAMED 1949-10-13 21:00:00 TS 22.5575 -73.1925 main 156 156 P_____________ AL131949 22.5575 -73.1925 TS 37 0 9 38
1949286N21285 1949 91 NA NA NOT_NAMED 1949-10-14 00:00:00 TS 22.9000 -72.9000 40 hurdat_atl main 190 190 O_____________ hurdat_atl AL131949 22.9000 -72.9000 TS 40 0 8 38
1949286N21285 1949 91 NA NA NOT_NAMED 1949-10-14 03:00:00 TS 23.1999 -72.6423 main 227 227 P_____________ AL131949 23.1999 -72.6423 TS 45 0 8 37
1949286N21285 1949 91 NA NA NOT_NAMED 1949-10-14 06:00:00 TS 23.5000 -72.4000 50 hurdat_atl main 264 264 O_____________ hurdat_atl AL131949 23.5000 -72.4000 TS 50 0 8 35
1949286N21285 1949 91 NA NA NOT_NAMED 1949-10-14 09:00:00 TS 23.8350 -72.1499 main 304 304 P_____________ AL131949 23.8350 -72.1499 TS 55 0 8 33
1949286N21285 1949 91 NA NA NOT_NAMED 1949-10-14 12:00:00 TS 24.2000 -71.9000 60 hurdat_atl main 353 353 O_____________ hurdat_atl AL131949 24.2000 -71.9000 TS 60 0 9 32
1949286N21285 1949 91 NA NA NOT_NAMED 1949-10-14 15:00:00 TS 24.5850 -71.6424 main 406 406 P_____________ AL131949 24.5850 -71.6424 TS 62 0 9 30
1949286N21285 1949 91 NA NA NOT_NAMED 1949-10-14 18:00:00 TS 25.0000 -71.4000 65 995 hurdat_atl main 455 455 O_____________ hurdat_atl AL131949 25.0000 -71.4000 HU 65 995 1 10 25
1949286N21285 1949 91 NA NA NOT_NAMED 1949-10-14 21:00:00 TS 25.4424 -71.1997 main 504 504 P_____________ AL131949 25.4424 -71.1997 HU 67 1 10 22
1949286N21285 1949 91 NA NA NOT_NAMED 1949-10-15 00:00:00 TS 25.9000 -71.0000 70 hurdat_atl main 563 563 O_____________ hurdat_atl AL131949 25.9000 -71.0000 HU 70 1 10 23
1949286N21285 1949 91 NA NA NOT_NAMED 1949-10-15 03:00:00 TS 26.3575 -70.7574 main 622 622 P_____________ AL131949 26.3575 -70.7574 HU 72 1 10 26
1949286N21285 1949 91 NA NA NOT_NAMED 1949-10-15 06:00:00 TS 26.8000 -70.5000 75 hurdat_atl main 675 675 O_____________ hurdat_atl AL131949 26.8000 -70.5000 HU 75 1 9 30
1949286N21285 1949 91 NA NA NOT_NAMED 1949-10-15 09:00:00 TS 27.1475 -70.2420 main 717 717 P_____________ AL131949 27.1475 -70.2420 HU 77 1 9 29
1949286N21285 1949 91 NA NA NOT_NAMED 1949-10-15 12:00:00 TS 27.6000 -70.0000 80 hurdat_atl main 776 776 O_____________ hurdat_atl AL131949 27.6000 -70.0000 HU 80 1 13 19
1949286N21285 1949 91 NA NA NOT_NAMED 1949-10-15 15:00:00 TS 28.3325 -69.7924 main 856 856 P_____________ AL131949 28.3325 -69.7924 HU 80 1 16 12
1949286N21285 1949 91 NA NA NOT_NAMED 1949-10-15 18:00:00 TS 29.2000 -69.6000 80 hurdat_atl main 893 845 O_____________ hurdat_atl AL131949 29.2000 -69.6000 HU 80 1 18 11
1949286N21285 1949 91 NA NA NOT_NAMED 1949-10-15 21:00:00 TS 30.0424 -69.4070 main 845 797 P_____________ AL131949 30.0424 -69.4070 HU 80 1 17 12
1949286N21285 1949 91 NA NA NOT_NAMED 1949-10-16 00:00:00 TS 30.9000 -69.2000 80 hurdat_atl main 797 753 O_____________ hurdat_atl AL131949 30.9000 -69.2000 HU 80 1 17 12
1949286N21285 1949 91 NA NA NOT_NAMED 1949-10-16 03:00:00 TS 31.7349 -68.9716 main 753 722 P_____________ AL131949 31.7349 -68.9716 HU 80 1 18 14
1949286N21285 1949 91 NA NA NOT_NAMED 1949-10-16 06:00:00 TS 32.6000 -68.7000 80 hurdat_atl main 718 692 O_____________ hurdat_atl AL131949 32.6000 -68.7000 HU 80 1 19 15
1949286N21285 1949 91 NA NA NOT_NAMED 1949-10-16 09:00:00 TS 33.6022 -68.3950 main 692 685 P_____________ AL131949 33.6022 -68.3950 HU 80 1 20 17
1949286N21285 1949 91 NA NA NOT_NAMED 1949-10-16 12:00:00 TS 34.5000 -68.0000 80 hurdat_atl main 695 695 O_____________ hurdat_atl AL131949 34.5000 -68.0000 HU 80 1 17 27
1949286N21285 1949 91 NA NA NOT_NAMED 1949-10-16 15:00:00 TS 35.1125 -67.4799 main 726 726 P_____________ AL131949 35.1125 -67.4799 HU 77 1 13 42
1949286N21285 1949 91 NA NA NOT_NAMED 1949-10-16 18:00:00 TS 35.5000 -66.9000 75 hurdat_atl main 740 729 O_____________ hurdat_atl AL131949 35.5000 -66.9000 HU 75 1 11 56
1949286N21285 1949 91 NA NA NOT_NAMED 1949-10-16 21:00:00 TS 35.7447 -66.3488 main 740 730 P_____________ AL131949 35.7447 -66.3488 HU 70 1 10 66
1949286N21285 1949 91 NA NA NOT_NAMED 1949-10-17 00:00:00 TS 35.9000 -65.8000 65 hurdat_atl main 740 738 O_____________ hurdat_atl AL131949 35.9000 -65.8000 HU 65 1 10 68
1949286N21285 1949 91 NA NA NOT_NAMED 1949-10-17 03:00:00 TS 36.0997 -65.2497 main 748 743 P_____________ AL131949 36.0997 -65.2497 HU 62 0 10 66
1949286N21285 1949 91 NA NA NOT_NAMED 1949-10-17 06:00:00 TS 36.3000 -64.7000 60 hurdat_atl main 754 754 O_____________ hurdat_atl AL131949 36.3000 -64.7000 TS 60 0 10 66
1949286N21285 1949 91 NA NA NOT_NAMED 1949-10-17 09:00:00 TS 36.5001 -64.1200 main 769 766 P_____________ AL131949 36.5001 -64.1200 TS 57 0 10 66
1949286N21285 1949 91 NA NA NOT_NAMED 1949-10-17 12:00:00 TS 36.7000 -63.6000 55 hurdat_atl main 770 753 O_____________ hurdat_atl AL131949 36.7000 -63.6000 TS 55 0 9 61
1949286N21285 1949 91 NA NA NOT_NAMED 1949-10-17 15:00:00 TS 36.9223 -63.1825 main 755 738 P_____________ AL131949 36.9223 -63.1825 TS 55 0 7 54
1949286N21285 1949 91 NA NA NOT_NAMED 1949-10-17 18:00:00 TS 37.1000 -62.9000 55 hurdat_atl main 740 732 O_____________ hurdat_atl AL131949 37.1000 -62.9000 TS 55 0 4 54
1949286N21285 1949 91 NA NA NOT_NAMED 1949-10-17 21:00:00 TS 37.1723 -62.7547 main 732 732 P_____________ AL131949 37.1723 -62.7547 TS 55 0 2 57
1949286N21285 1949 91 NA NA NOT_NAMED 1949-10-18 00:00:00 TS 37.2000 -62.7000 55 hurdat_atl main 734 734 O_____________ hurdat_atl AL131949 37.2000 -62.7000 TS 55 0 1 61
1949286N21285 1949 91 NA NA NOT_NAMED 1949-10-18 03:00:00 TS 37.2200 -62.6424 main 737 726 P_____________ AL131949 37.2200 -62.6424 TS 55 0 1 37
1949286N21285 1949 91 NA NA NOT_NAMED 1949-10-18 06:00:00 TS 37.3000 -62.6000 55 hurdat_atl main 726 708 O_____________ hurdat_atl AL131949 37.3000 -62.6000 TS 55 0 3 18
1949286N21285 1949 91 NA NA NOT_NAMED 1949-10-18 09:00:00 TS 37.4750 -62.5426 main 708 676 P_____________ AL131949 37.4750 -62.5426 TS 55 0 5 9
1949286N21285 1949 91 NA NA NOT_NAMED 1949-10-18 12:00:00 TS 37.8000 -62.5000 55 hurdat_atl main 676 624 O_____________ hurdat_atl AL131949 37.8000 -62.5000 TS 55 0 8 3
1949286N21285 1949 91 NA NA NOT_NAMED 1949-10-18 15:00:00 TS 38.3050 -62.4997 main 624 562 P_____________ AL131949 38.3050 -62.4997 TS 55 0 11 0
1949286N21285 1949 91 NA NA NOT_NAMED 1949-10-18 18:00:00 TS 38.9000 -62.5000 55 hurdat_atl main 562 511 O_____________ hurdat_atl AL131949 38.9000 -62.5000 TS 55 0 11 1
1949286N21285 1949 91 NA NA NOT_NAMED 1949-10-18 21:00:00 TS 39.4425 -62.4649 main 511 457 P_____________ AL131949 39.4425 -62.4649 TS 52 0 11 4
1949286N21285 1949 91 NA NA NOT_NAMED 1949-10-19 00:00:00 TS 40.0000 -62.4000 50 hurdat_atl main 457 406 O_____________ hurdat_atl AL131949 40.0000 -62.4000 TS 50 0 12 5
1949286N21285 1949 91 NA NA NOT_NAMED 1949-10-19 03:00:00 TS 40.6150 -62.3150 main 406 358 P_____________ AL131949 40.6150 -62.3150 TS 50 0 12 7
1949286N21285 1949 91 NA NA NOT_NAMED 1949-10-19 06:00:00 ET 41.2000 -62.2000 50 hurdat_atl main 358 328 O_____________ hurdat_atl AL131949 41.2000 -62.2000 EX 50 -4 11 9
1949286N21285 1949 91 NA NA NOT_NAMED 1949-10-19 09:00:00 ET 41.6722 -62.1014 main 320 290 P_____________ AL131949 41.6722 -62.1014 EX 50 -4 9 14
1949286N21285 1949 91 NA NA NOT_NAMED 1949-10-19 12:00:00 ET 42.1000 -61.9000 50 hurdat_atl main 290 252 O_____________ hurdat_atl AL131949 42.1000 -61.9000 EX 50 -4 10 25
1949286N21285 1949 91 NA NA NOT_NAMED 1949-10-19 15:00:00 ET 42.6176 -61.5043 main 255 229 P_____________ AL131949 42.6176 -61.5043 EX 50 -4 11 36
1949286N21285 1949 91 NA NA NOT_NAMED 1949-10-19 18:00:00 ET 43.0000 -61.0000 50 hurdat_atl main 233 228 O_____________ hurdat_atl AL131949 43.0000 -61.0000 EX 50 -4 9 58
1949286N21285 1949 91 NA NA NOT_NAMED 1949-10-19 21:00:00 ET 43.1055 -60.4160 main 239 239 P_____________ AL131949 43.1055 -60.4160 EX 47 -4 7 90
1949286N21285 1949 91 NA NA NOT_NAMED 1949-10-20 00:00:00 ET 43.0000 -60.0000 45 hurdat_atl main 259 259 O_____________ hurdat_atl AL131949 43.0000 -60.0000 EX 45 -4 4 131
1949286N21285 1949 91 NA NA NOT_NAMED 1949-10-20 03:00:00 ET 42.8246 -59.9796 main 280 280 P_____________ AL131949 42.8246 -59.9796 EX 42 -4 5 197
1949286N21285 1949 91 NA NA NOT_NAMED 1949-10-20 06:00:00 ET 42.5000 -60.2000 40 hurdat_atl main 308 308 O_____________ hurdat_atl AL131949 42.5000 -60.2000 EX 40 -4 10 205
1949286N21285 1949 91 NA NA NOT_NAMED 1949-10-20 09:00:00 ET 41.9479 -60.5396 main 360 356 P_____________ AL131949 41.9479 -60.5396 EX 37 -4 11 204
1949286N21285 1949 91 NA NA NOT_NAMED 1949-10-20 12:00:00 ET 41.5000 -60.8000 35 hurdat_atl main 390 390 O_____________ hurdat_atl AL131949 41.5000 -60.8000 EX 35 -4 5 202
1949286N21285 1949 91 NA NA NOT_NAMED 1949-10-20 15:00:00 ET 41.4641 -60.8052 main 390 380 P_____________ AL131949 41.4641 -60.8052 EX 35 -4 3 48
1949286N21285 1949 91 NA NA NOT_NAMED 1949-10-20 18:00:00 ET 41.7000 -60.5000 35 hurdat_atl main 380 363 O_____________ hurdat_atl AL131949 41.7000 -60.5000 EX 35 -4 9 48
1949286N21285 1949 91 NA NA NOT_NAMED 1949-10-20 21:00:00 ET 42.0378 -59.9505 main 366 340 P_____________ AL131949 42.0378 -59.9505 EX 35 -4 14 54
1949286N21285 1949 91 NA NA NOT_NAMED 1949-10-21 00:00:00 ET 42.5000 -59.0000 35 hurdat_atl main 343 338 O_____________ hurdat_atl AL131949 42.5000 -59.0000 EX 35 -4 19 60
1949286N21285 1949 91 NA NA NOT_NAMED 1949-10-21 03:00:00 ET 42.9646 -57.7571 main 354 354 P_____________ AL131949 42.9646 -57.7571 EX 35 -4 24 66
1949286N21285 1949 91 NA NA NOT_NAMED 1949-10-21 06:00:00 ET 43.5000 -56.0000 35 hurdat_atl main 367 278 O_____________ hurdat_atl AL131949 43.5000 -56.0000 EX 35 -4 31 68
1949286N21285 1949 91 NA NA NOT_NAMED 1949-10-21 09:00:00 ET 44.1502 -53.7319 main 266 241 P_____________ AL131949 44.1502 -53.7319 EX 35 -4 38 72
1949286N21285 1949 91 NA NA NOT_NAMED 1949-10-21 12:00:00 ET 44.7000 -51.0000 35 hurdat_atl main 271 271 O_____________ hurdat_atl AL131949 44.7000 -51.0000 EX 35 -4 41 79
1949286N21285 1949 91 NA NA NOT_NAMED 1949-10-21 15:00:00 ET 44.9601 -48.0439 main 434 434 P_____________ AL131949 44.9601 -48.0439 EX 35 -4 42 86
1949286N21285 1949 91 NA NA NOT_NAMED 1949-10-21 18:00:00 ET 45.0000 -45.0000 35 hurdat_atl main 644 O_____________ hurdat_atl AL131949 45.0000 -45.0000 EX 35 -4 43 89

About IBTrACS Database

This database is a web-friendly format of International Best Track Archive for Climate Stewardship (IBTrACS), a global best track data archive curated by NOAA dating back to 1842.

Updated: 2021-10-08